Time;durP1;ratioP1;P1;durP2;ratioP2;P2;SDS_P1;SDS_P2;PMS_P1;PMS_P2;Temp;Humidity;BMP_temperature;BMP_pressure;BME280_temperature;BME280_humidity;BME280_pressure;Samples;Min_cycle;Max_cycle;Signal;HPM_P1;HPM_P2
2022/10/27 00:02:14;;;;;;;25.67;12.70;;;;;;;10.18;83.27;101371.42;125161;1099;104198;-73
2022/10/27 00:04:45;;;;;;;25.57;13.00;;;;;;;10.18;83.98;101377.56;124782;1098;102290;-73
2022/10/27 00:07:16;;;;;;;23.20;12.13;;;;;;;10.19;83.84;101378.45;124906;1099;102473;-72
2022/10/27 00:09:47;;;;;;;22.07;12.17;;;;;;;10.18;83.40;101385.42;124788;1099;104334;-72
2022/10/27 00:12:18;;;;;;;23.13;11.67;;;;;;;10.17;83.91;101383.61;124793;1099;104061;-73
2022/10/27 00:14:49;;;;;;;24.47;11.40;;;;;;;10.19;84.11;101391.56;124771;1099;104281;-73
2022/10/27 00:17:20;;;;;;;22.30;12.10;;;;;;;10.18;84.04;101382.80;124814;1099;104193;-72
2022/10/27 00:19:51;;;;;;;22.33;12.43;;;;;;;10.18;84.13;101384.53;124843;1099;104306;-72
2022/10/27 00:22:23;;;;;;;22.47;11.57;;;;;;;10.16;84.65;101386.16;124880;1099;102986;-73
2022/10/27 00:24:54;;;;;;;23.03;11.90;;;;;;;10.14;84.50;101382.56;124743;1099;104166;-73
2022/10/27 00:27:26;;;;;;;24.10;11.33;;;;;;;10.12;84.65;101389.47;124881;1099;102926;-73
2022/10/27 00:29:57;;;;;;;22.13;11.17;;;;;;;10.07;84.53;101389.23;124812;1099;104194;-72
2022/10/27 00:32:28;;;;;;;20.77;10.93;;;;;;;10.04;84.85;101400.45;124871;1099;102034;-72
2022/10/27 00:35:02;;;;;;;25.17;11.83;;;;;;;10.01;84.52;101392.42;124868;1099;102185;-73
2022/10/27 00:37:33;;;;;;;22.70;12.03;;;;;;;10.00;84.58;101400.20;124809;1099;103510;-73
2022/10/27 00:40:05;;;;;;;25.20;12.03;;;;;;;9.96;85.03;101401.77;124882;1099;104191;-73
2022/10/27 00:42:36;;;;;;;23.87;12.27;;;;;;;9.93;84.65;101393.75;124753;1099;104217;-72
2022/10/27 00:45:09;;;;;;;28.87;12.33;;;;;;;9.90;85.32;101396.20;124842;1099;104214;-73
2022/10/27 00:47:40;;;;;;;22.63;11.63;;;;;;;9.87;85.45;101393.42;125014;1099;102499;-72
2022/10/27 00:50:16;;;;;;;23.33;12.30;;;;;;;9.84;85.11;101393.27;124837;1099;104233;-73
2022/10/27 00:52:51;;;;;;;23.53;12.10;;;;;;;9.79;85.91;101399.98;124852;1099;104265;-72
2022/10/27 00:55:25;;;;;;;23.27;11.50;;;;;;;9.75;85.55;101401.52;124849;1099;104169;-73
2022/10/27 00:57:56;;;;;;;;;;;;;;;9.70;86.01;101401.28;124892;1099;104195;-73
2022/10/27 01:00:27;;;;;;;24.20;12.30;;;;;;;9.67;85.23;101401.11;124875;1099;102968;-73
2022/10/27 01:02:59;;;;;;;23.23;11.60;;;;;;;9.67;85.56;101398.49;124679;1099;102928;-73
2022/10/27 01:05:31;;;;;;;24.47;12.70;;;;;;;9.66;85.94;101398.41;124795;1099;104271;-73
2022/10/27 01:08:05;;;;;;;22.67;11.73;;;;;;;9.66;86.12;101401.95;124857;1099;104626;-73
2022/10/27 01:10:36;;;;;;;27.10;13.50;;;;;;;9.65;86.30;101402.77;124852;1099;104166;-72
2022/10/27 01:13:07;;;;;;;24.10;12.53;;;;;;;9.65;86.10;101410.63;124781;1099;104165;-72
2022/10/27 01:15:46;;;;;;;22.77;11.37;;;;;;;9.64;86.81;101406.19;124778;1099;104076;-73
2022/10/27 01:18:26;;;;;;;22.40;12.30;;;;;;;9.63;86.32;101403.48;124893;1098;104220;-73
2022/10/27 01:21:35;;;;;;;25.30;12.70;;;;;;;9.62;86.35;101417.43;124843;1099;104230;-72
2022/10/27 01:24:32;;;;;;;25.33;12.23;;;;;;;9.60;85.60;101409.48;124959;1099;103542;-73
2022/10/27 01:27:05;;;;;;;21.77;11.60;;;;;;;9.60;86.03;101414.72;124917;1098;104327;-73
2022/10/27 01:30:03;;;;;;;26.50;12.57;;;;;;;9.58;85.97;101415.45;124802;1099;104182;-73
2022/10/27 01:32:44;;;;;;;24.03;12.53;;;;;;;9.57;85.51;101413.63;124910;1098;104224;-73
2022/10/27 01:35:26;;;;;;;22.23;11.97;;;;;;;9.57;86.39;101411.94;124851;1098;110573;-73
2022/10/27 01:38:06;;;;;;;24.30;12.60;;;;;;;9.57;86.39;101414.56;124883;1099;101887;-73
2022/10/27 01:40:43;;;;;;;21.97;11.47;;;;;;;9.57;86.44;101413.63;124799;1099;104191;-73
2022/10/27 01:43:19;;;;;;;24.07;12.30;;;;;;;9.55;85.86;101418.79;124826;1099;104342;-73
2022/10/27 01:45:52;;;;;;;22.63;12.33;;;;;;;9.54;86.29;101411.77;124910;1099;102817;-72
2022/10/27 01:48:24;;;;;;;21.80;12.23;;;;;;;9.54;85.55;101415.28;124942;1099;104163;-73
2022/10/27 01:50:55;;;;;;;24.97;11.83;;;;;;;9.55;85.86;101421.41;124823;1099;104248;-73
2022/10/27 01:53:27;;;;;;;23.67;12.57;;;;;;;9.54;86.37;101425.77;124989;1099;104323;-73
2022/10/27 01:56:16;;;;;;;26.00;12.80;;;;;;;9.54;86.09;101422.25;124931;1099;103414;-72
2022/10/27 01:59:00;;;;;;;22.20;11.90;;;;;;;9.54;86.43;101427.49;124918;1099;102481;-73
2022/10/27 02:01:44;;;;;;;23.00;11.97;;;;;;;9.51;85.85;101430.83;125057;1099;104262;-73
2022/10/27 02:04:23;;;;;;;23.97;11.70;;;;;;;9.50;86.15;101433.37;125036;1099;102837;-73
2022/10/27 02:07:00;;;;;;;25.83;12.80;;;;;;;9.48;85.98;101435.91;125061;1099;104214;-73
2022/10/27 02:09:40;;;;;;;24.03;12.07;;;;;;;9.46;85.90;101441.89;124945;1099;102623;-73
2022/10/27 02:12:15;;;;;;;23.80;12.37;;;;;;;9.44;85.77;101443.51;125065;1099;101987;-73
2022/10/27 02:14:48;;;;;;;24.40;12.40;;;;;;;9.44;86.06;101443.51;124938;1099;102940;-73
2022/10/27 02:17:22;;;;;;;22.30;12.40;;;;;;;9.42;85.89;101447.77;124919;1099;101852;-73
2022/10/27 02:19:57;;;;;;;22.67;11.90;;;;;;;9.39;86.65;101445.88;124981;1099;104262;-73
2022/10/27 02:22:31;;;;;;;27.57;12.50;;;;;;;9.38;86.28;101448.41;124987;1099;102978;-73
2022/10/27 02:25:02;;;;;;;26.47;13.40;;;;;;;9.38;86.40;101454.57;124922;1098;104281;-73
2022/10/27 02:27:37;;;;;;;22.63;11.53;;;;;;;9.35;86.19;101452.67;125459;1099;104241;-73
2022/10/27 02:30:10;;;;;;;25.23;12.93;;;;;;;9.33;86.99;101458.62;125057;1099;104249;-73
2022/10/27 02:32:42;;;;;;;22.10;12.13;;;;;;;9.32;86.28;101462.08;125002;1099;104191;-73
2022/10/27 02:35:15;;;;;;;25.17;13.13;;;;;;;9.29;86.81;101468.04;124967;1099;102770;-73
2022/10/27 02:37:47;;;;;;;25.93;12.77;;;;;;;9.27;86.12;101467.06;125016;1099;104202;-73
2022/10/27 02:40:18;;;;;;;24.73;12.77;;;;;;;9.26;86.29;101465.25;124970;1099;104200;-73
2022/10/27 02:42:49;;;;;;;23.17;12.07;;;;;;;9.25;86.46;101471.29;125044;1099;104176;-72
2022/10/27 02:45:20;;;;;;;25.70;12.93;;;;;;;9.22;86.77;101471.11;124967;1098;104358;-73
2022/10/27 02:47:51;;;;;;;25.37;13.27;;;;;;;9.20;86.89;101470.14;125096;1098;104176;-73
2022/10/27 02:50:22;;;;;;;26.37;13.43;;;;;;;9.19;86.95;101473.56;125177;1099;104172;-73
2022/10/27 02:52:53;;;;;;;23.83;12.37;;;;;;;9.16;86.76;101468.14;125120;1098;102899;-73
2022/10/27 02:55:24;;;;;;;27.47;13.20;;;;;;;9.15;86.50;101474.22;125076;1099;102122;-73
2022/10/27 02:57:55;;;;;;;26.97;12.87;;;;;;;9.13;86.52;101473.20;125103;1099;104274;-73
2022/10/27 03:00:27;;;;;;;25.50;12.57;;;;;;;9.11;86.25;101480.09;126220;1098;101788;-72
2022/10/27 03:02:58;;;;;;;25.13;12.60;;;;;;;9.09;86.83;101487.85;125201;1099;104230;-72
2022/10/27 03:05:29;;;;;;;29.30;13.90;;;;;;;9.08;86.62;101486.03;125313;1099;104183;-72
2022/10/27 03:08:00;;;;;;;26.43;13.40;;;;;;;9.08;87.02;101490.38;125212;1099;102258;-73
2022/10/27 03:10:31;;;;;;;25.77;13.17;;;;;;;9.06;86.46;101486.78;125835;1098;104303;-73
2022/10/27 03:13:02;;;;;;;25.93;12.80;;;;;;;9.03;86.67;101491.84;125219;1099;104214;-73
2022/10/27 03:15:33;;;;;;;25.30;13.47;;;;;;;9.02;86.53;101495.27;125234;1099;102289;-72
2022/10/27 03:18:05;;;;;;;28.43;14.27;;;;;;;9.03;87.27;101490.12;125299;1099;104271;-72
2022/10/27 03:20:36;;;;;;;24.20;12.90;;;;;;;9.01;86.65;101499.61;125271;1099;103790;-73
2022/10/27 03:23:07;;;;;;;26.03;13.73;;;;;;;9.00;87.30;101500.41;125222;1099;104370;-73
2022/10/27 03:25:43;;;;;;;25.13;13.73;;;;;;;8.99;87.27;101504.75;125254;1099;104067;-72
2022/10/27 03:28:14;;;;;;;23.43;12.67;;;;;;;9.00;86.59;101503.03;125388;1099;104227;-73
2022/10/27 03:30:45;;;;;;;25.90;13.03;;;;;;;8.98;86.61;101500.32;125182;1099;102508;-73
2022/10/27 03:33:16;;;;;;;25.55;13.85;;;;;;;8.96;87.05;101501.95;124989;1099;104227;-73
2022/10/27 03:35:48;;;;;;;25.23;13.83;;;;;;;8.94;86.65;101500.98;125218;1099;104783;-73
2022/10/27 03:38:19;;;;;;;27.37;13.67;;;;;;;8.92;86.88;101494.73;125120;1099;102476;-73
2022/10/27 03:40:50;;;;;;;24.87;13.70;;;;;;;8.93;87.29;101511.36;125223;1099;102239;-73
2022/10/27 03:43:21;;;;;;;23.63;13.27;;;;;;;8.91;87.07;101512.96;125207;1099;103389;-72
2022/10/27 03:45:52;;;;;;;24.00;12.77;;;;;;;8.90;87.22;101512.07;126208;1098;102834;-73
2022/10/27 03:48:23;;;;;;;24.67;14.27;;;;;;;8.90;87.20;101517.30;125263;1099;104271;-72
2022/10/27 03:50:55;;;;;;;25.27;14.27;;;;;;;8.89;87.48;101507.64;125235;1099;104249;-72
2022/10/27 03:53:26;;;;;;;24.83;12.97;;;;;;;8.90;87.49;101521.65;125153;1099;103552;-72
2022/10/27 03:55:58;;;;;;;27.13;14.13;;;;;;;8.90;87.87;101519.03;125137;1099;101830;-72
2022/10/27 03:58:29;;;;;;;26.47;14.33;;;;;;;8.88;87.47;101523.25;125218;1099;102203;-72
2022/10/27 04:01:04;;;;;;;25.70;13.20;;;;;;;8.86;87.27;101515.31;125130;1099;103720;-72
2022/10/27 04:03:35;;;;;;;24.83;13.83;;;;;;;8.87;87.25;101521.47;125089;1099;104182;-73
2022/10/27 04:06:06;;;;;;;28.13;14.40;;;;;;;8.87;87.38;101511.00;125217;1098;101935;-73
2022/10/27 04:08:37;;;;;;;26.77;14.87;;;;;;;8.89;87.11;101519.83;124820;1099;102464;-72
2022/10/27 04:11:08;;;;;;;25.77;14.10;;;;;;;8.89;87.80;101515.48;124919;1099;103827;-72
2022/10/27 04:13:39;;;;;;;26.70;14.23;;;;;;;8.90;87.20;101519.03;124841;1099;104213;-73
2022/10/27 04:16:10;;;;;;;25.53;13.37;;;;;;;8.91;87.92;101513.89;124702;1099;104201;-73
2022/10/27 04:18:41;;;;;;;26.97;14.23;;;;;;;8.93;87.36;101516.59;124929;1099;104703;-73
2022/10/27 04:21:13;;;;;;;27.03;14.70;;;;;;;8.94;87.59;101519.30;124706;1099;104217;-73
2022/10/27 04:23:45;;;;;;;30.20;14.73;;;;;;;8.93;87.37;101511.36;124985;1099;104222;-73
2022/10/27 04:26:16;;;;;;;26.93;14.40;;;;;;;8.95;88.08;101517.58;124797;1099;104204;-73
2022/10/27 04:28:47;;;;;;;31.47;15.30;;;;;;;8.96;87.93;101520.28;124799;1099;108462;-73
2022/10/27 04:31:18;;;;;;;27.90;14.63;;;;;;;8.98;88.00;101517.76;124709;1099;104277;-73
2022/10/27 04:33:49;;;;;;;27.40;15.20;;;;;;;8.99;88.01;101527.39;124877;1099;102869;-73
2022/10/27 04:36:20;;;;;;;25.63;13.63;;;;;;;9.00;87.74;101530.09;124932;1099;102374;-73
2022/10/27 04:38:51;;;;;;;27.60;14.40;;;;;;;9.00;88.24;101534.44;124778;1099;102882;-73
2022/10/27 04:41:22;;;;;;;28.77;14.20;;;;;;;9.00;88.38;101534.44;124868;1098;104705;-73
2022/10/27 04:43:53;;;;;;;26.83;13.87;;;;;;;9.00;88.33;101544.92;124867;1099;103680;-73
2022/10/27 04:46:25;;;;;;;30.37;15.93;;;;;;;9.00;88.25;101543.19;124850;1099;102711;-73
2022/10/27 04:48:56;;;;;;;30.73;15.23;;;;;;;9.03;88.13;101544.20;124980;1099;104178;-73
2022/10/27 04:51:27;;;;;;;25.87;15.00;;;;;;;9.06;88.43;101549.63;124937;1099;104271;-72
2022/10/27 04:53:58;;;;;;;29.43;14.97;;;;;;;9.06;88.06;101557.48;124731;1099;104326;-73
2022/10/27 04:56:29;;;;;;;26.23;13.87;;;;;;;9.07;88.37;101546.17;124804;1099;104220;-72
2022/10/27 04:59:00;;;;;;;26.40;15.37;;;;;;;9.08;87.94;101550.60;124886;1098;104248;-73
2022/10/27 05:01:31;;;;;;;24.83;13.83;;;;;;;9.08;88.14;101558.45;124863;1099;104175;-72
2022/10/27 05:04:03;;;;;;;28.50;13.93;;;;;;;9.07;88.89;101556.64;124864;1099;104169;-73
2022/10/27 05:06:35;;;;;;;27.27;14.20;;;;;;;9.08;88.76;101555.84;124799;1099;104175;-73
2022/10/27 05:09:06;;;;;;;27.93;14.70;;;;;;;9.09;88.81;101557.66;124890;1099;104070;-72
2022/10/27 05:11:37;;;;;;;26.17;13.70;;;;;;;9.12;88.86;101561.34;124318;1100;102532;-72
2022/10/27 05:14:08;;;;;;;29.23;14.77;;;;;;;9.15;88.23;101556.29;124855;1099;104232;-72
2022/10/27 05:16:41;;;;;;;26.10;14.45;;;;;;;9.16;88.50;101562.42;124703;1099;104245;-71
2022/10/27 05:19:13;;;;;;;25.50;14.40;;;;;;;9.14;88.32;101569.30;124609;1099;104185;-71
2022/10/27 05:21:44;;;;;;;27.50;14.10;;;;;;;9.12;88.21;101571.82;124724;1099;104257;-71
2022/10/27 05:24:15;;;;;;;26.47;14.67;;;;;;;9.14;88.12;101585.89;124653;1099;104182;-71
2022/10/27 05:26:46;;;;;;;28.70;15.93;;;;;;;9.17;88.86;101580.84;124804;1099;104220;-72
2022/10/27 05:29:17;;;;;;;32.53;18.60;;;;;;;9.24;88.62;101581.20;124405;1099;104236;-71
2022/10/27 05:31:48;;;;;;;32.07;15.67;;;;;;;9.24;88.57;101589.05;124608;1099;104099;-71
2022/10/27 05:34:20;;;;;;;29.53;14.50;;;;;;;9.16;89.06;101594.77;124266;1099;104318;-72
2022/10/27 05:36:51;;;;;;;30.90;15.03;;;;;;;9.10;88.49;101596.09;124774;1099;104245;-71
2022/10/27 05:39:22;;;;;;;25.30;13.13;;;;;;;9.05;88.85;101606.30;124725;1099;102225;-71
2022/10/27 05:42:04;;;;;;;28.33;13.70;;;;;;;9.01;89.86;101606.95;124891;1099;104178;-72
2022/10/27 05:44:35;;;;;;;27.10;14.37;;;;;;;8.97;89.70;101611.08;124319;1099;102226;-73
2022/10/27 05:47:06;;;;;;;31.23;15.83;;;;;;;8.99;88.69;101609.47;124816;1099;104172;-72
2022/10/27 05:49:40;;;;;;;28.70;15.40;;;;;;;9.06;89.36;101613.35;124818;1098;104348;-72
2022/10/27 05:52:11;;;;;;;28.12;15.50;;;;;;;9.14;89.18;101619.05;124822;1099;104193;-72
2022/10/27 05:54:42;;;;;;;28.63;15.63;;;;;;;9.21;89.23;101629.08;124432;1099;104390;-72
2022/10/27 05:57:14;;;;;;;30.27;16.27;;;;;;;9.26;89.39;101619.77;124881;1098;104377;-73
2022/10/27 05:59:45;;;;;;;28.87;15.13;;;;;;;9.34;89.46;101623.73;124383;1099;104242;-73
2022/10/27 06:02:16;;;;;;;29.37;16.00;;;;;;;9.41;88.83;101625.02;124831;1099;104178;-72
2022/10/27 06:04:48;;;;;;;31.00;15.83;;;;;;;9.48;89.50;101628.89;124682;1099;104222;-72
2022/10/27 06:07:19;;;;;;;32.00;16.70;;;;;;;9.54;89.41;101627.52;124736;1099;104236;-72
2022/10/27 06:09:50;;;;;;;31.43;16.13;;;;;;;9.61;89.53;101626.14;124696;1099;103048;-72
2022/10/27 06:12:21;;;;;;;28.40;15.27;;;;;;;9.67;89.35;101631.73;124349;1099;104233;-73
2022/10/27 06:14:53;;;;;;;25.37;14.07;;;;;;;9.73;89.63;101635.55;124709;1099;104191;-73
2022/10/27 06:17:24;;;;;;;31.97;15.90;;;;;;;9.79;89.49;101641.14;124734;1099;103741;-73
2022/10/27 06:19:55;;;;;;;30.43;15.47;;;;;;;9.86;89.53;101638.03;124724;1099;104235;-74
2022/10/27 06:22:27;;;;;;;27.50;15.77;;;;;;;9.93;89.47;101639.31;124906;1099;104236;-73
2022/10/27 06:24:59;;;;;;;27.77;15.43;;;;;;;10.00;90.27;101647.61;126156;1098;101988;-73
2022/10/27 06:27:32;;;;;;;30.63;15.83;;;;;;;10.08;90.24;101645.38;124972;1099;104224;-73
2022/10/27 06:30:03;;;;;;;28.98;15.58;;;;;;;10.17;90.27;101645.01;125092;1099;104305;-73
2022/10/27 06:32:38;;;;;;;30.97;15.57;;;;;;;10.23;89.67;101646.24;125026;1098;104271;-73
2022/10/27 06:35:13;;;;;;;30.13;16.53;;;;;;;10.34;90.33;101635.48;124944;1099;104166;-74
2022/10/27 06:37:45;;;;;;;32.30;17.53;;;;;;;10.45;89.75;101642.21;126121;1099;102425;-74
2022/10/27 06:40:19;;;;;;;31.67;17.20;;;;;;;10.55;90.04;101635.73;124816;1099;102118;-73
2022/10/27 06:42:52;;;;;;;33.63;16.97;;;;;;;10.65;90.21;101638.04;125084;1099;104198;-74
2022/10/27 06:45:23;;;;;;;30.70;16.53;;;;;;;10.75;89.94;101642.97;124926;1099;103017;-74
2022/10/27 06:48:00;;;;;;;32.93;16.93;;;;;;;10.86;89.85;101632.11;124599;1099;102550;-73
2022/10/27 06:50:32;;;;;;;34.23;16.60;;;;;;;10.96;90.02;101637.94;124968;1099;104238;-73
2022/10/27 06:53:18;;;;;;;31.50;16.43;;;;;;;11.07;89.95;101634.97;126204;1098;102898;-74
2022/10/27 06:55:50;;;;;;;31.20;16.13;;;;;;;11.16;89.79;101645.95;124491;1099;103552;-73
2022/10/27 06:58:21;;;;;;;31.63;15.47;;;;;;;11.26;89.87;101649.95;124464;1099;104169;-73
2022/10/27 07:00:53;;;;;;;29.40;16.10;;;;;;;11.32;89.77;101645.91;124606;1099;104345;-73
2022/10/27 07:03:25;;;;;;;30.50;16.23;;;;;;;11.41;89.29;101641.96;125062;1099;104217;-74
2022/10/27 07:05:59;;;;;;;32.10;16.95;;;;;;;11.49;89.54;101645.87;124438;1099;102918;-73
2022/10/27 07:08:31;;;;;;;28.70;16.80;;;;;;;11.58;89.37;101650.70;124965;1098;103239;-73
2022/10/27 07:11:03;;;;;;;31.90;17.40;;;;;;;11.67;89.40;101641.53;124945;1099;102759;-73
2022/10/27 07:13:36;;;;;;;33.10;17.53;;;;;;;11.78;89.41;101655.20;124866;1099;104099;-73
2022/10/27 07:16:09;;;;;;;31.93;16.67;;;;;;;11.85;88.97;101652.03;124873;1098;104053;-73
2022/10/27 07:18:44;;;;;;;34.90;16.90;;;;;;;11.92;88.99;101645.40;125054;1099;102879;-73
2022/10/27 07:21:15;;;;;;;32.67;17.27;;;;;;;12.00;88.81;101649.29;125454;1099;101885;-74
2022/10/27 07:23:47;;;;;;;34.97;17.03;;;;;;;12.10;88.47;101642.73;125027;1099;103354;-73
2022/10/27 07:26:18;;;;;;;37.17;17.20;;;;;;;12.19;88.65;101643.17;124953;1099;104175;-73
2022/10/27 07:28:53;;;;;;;31.70;17.50;;;;;;;12.27;88.20;101642.64;124940;1099;102829;-73
2022/10/27 07:31:25;;;;;;;33.10;16.77;;;;;;;12.38;88.44;101644.03;125072;1099;104233;-72
2022/10/27 07:34:06;;;;;;;40.93;18.93;;;;;;;12.49;88.27;101640.16;124917;1099;101974;-72
2022/10/27 07:36:38;;;;;;;33.80;16.87;;;;;;;12.59;88.58;101642.40;124903;1099;102293;-72
2022/10/27 07:39:12;;;;;;;33.70;17.03;;;;;;;12.66;87.55;101653.21;124861;1099;104173;-72
2022/10/27 07:41:44;;;;;;;31.57;15.80;;;;;;;12.76;87.46;101655.41;124780;1099;102867;-72
2022/10/27 07:44:16;;;;;;;29.60;15.50;;;;;;;12.81;86.83;101651.28;124876;1099;104249;-73
2022/10/27 07:46:50;;;;;;;31.82;16.25;;;;;;;12.87;86.97;101653.26;124966;1099;103744;-73
2022/10/27 07:49:23;;;;;;;27.57;14.50;;;;;;;12.95;86.78;101654.53;124875;1099;104172;-73
2022/10/27 07:51:55;;;;;;;27.27;14.58;;;;;;;13.03;86.80;101668.05;125306;1098;103356;-73
2022/10/27 07:54:33;;;;;;;27.27;14.20;;;;;;;13.10;86.50;101668.38;124894;1099;104236;-72
2022/10/27 07:57:13;;;;;;;27.97;14.50;;;;;;;13.18;86.24;101663.41;124927;1099;104236;-72
2022/10/27 07:59:44;;;;;;;28.47;14.27;;;;;;;13.27;86.17;101674.36;124450;1099;102801;-72
2022/10/27 08:02:16;;;;;;;27.70;13.80;;;;;;;13.36;85.61;101676.54;125348;1099;104168;-73
2022/10/27 08:04:48;;;;;;;;;;;;;;;13.44;84.41;101676.87;124938;1099;104163;-72
2022/10/27 08:07:25;;;;;;;26.10;12.73;;;;;;;13.50;84.96;101682.41;124822;1099;104232;-71
2022/10/27 08:09:59;;;;;;;24.30;13.20;;;;;;;13.59;85.10;101681.91;124710;1099;102084;-72
2022/10/27 08:12:31;;;;;;;27.47;12.73;;;;;;;13.65;85.00;101680.42;124856;1099;104265;-72
2022/10/27 08:15:03;;;;;;;24.97;12.57;;;;;;;13.74;84.53;101682.52;124399;1099;104153;-72
2022/10/27 08:17:35;;;;;;;24.77;12.33;;;;;;;13.82;84.41;101682.84;124848;1098;104175;-72
2022/10/27 08:20:10;;;;;;;26.70;13.10;;;;;;;13.88;83.52;101674.29;124827;1099;104359;-74
2022/10/27 08:22:52;;;;;;;25.60;12.63;;;;;;;13.98;83.05;101684.39;124979;1099;103283;-73
2022/10/27 08:25:25;;;;;;;26.57;13.90;;;;;;;14.09;84.12;101684.83;124941;1099;104259;-72
2022/10/27 08:27:57;;;;;;;27.33;11.67;;;;;;;14.17;82.69;101679.00;125145;1099;102779;-74
2022/10/27 08:30:33;;;;;;;29.50;12.57;;;;;;;14.27;82.95;101680.25;124951;1099;104663;-73
2022/10/27 08:33:09;;;;;;;23.83;11.20;;;;;;;14.35;82.27;101693.76;124878;1099;104169;-73
2022/10/27 08:35:40;;;;;;;24.00;10.27;;;;;;;14.39;81.79;101670.17;124462;1099;104237;-73
2022/10/27 08:38:15;;;;;;;19.37;9.77;;;;;;;14.46;81.33;101678.33;124827;1099;104179;-73
2022/10/27 08:41:02;;;;;;;19.37;10.10;;;;;;;14.55;82.35;101678.69;125052;1100;102722;-72
2022/10/27 08:44:11;;;;;;;20.07;9.50;;;;;;;14.61;80.42;101683.35;124754;1099;102404;-73
2022/10/27 08:46:45;;;;;;;20.53;9.40;;;;;;;14.70;81.62;101673.14;124703;1099;104220;-73
2022/10/27 08:49:27;;;;;;;21.70;9.80;;;;;;;14.78;80.19;101676.06;124799;1099;104238;-72
2022/10/27 08:52:03;;;;;;;18.50;8.53;;;;;;;14.86;80.92;101671.95;124824;1099;104226;-73
2022/10/27 08:54:35;;;;;;;18.07;8.47;;;;;;;14.97;80.76;101677.63;124898;1099;102315;-73
2022/10/27 08:57:11;;;;;;;22.73;9.00;;;;;;;15.09;80.43;101675.44;124330;1099;102615;-73
2022/10/27 08:59:43;;;;;;;20.87;9.33;;;;;;;15.17;79.77;101671.31;124831;1099;104235;-73
2022/10/27 09:02:32;;;;;;;19.00;7.67;;;;;;;15.23;79.34;101670.64;124774;1099;102213;-72
2022/10/27 09:05:22;;;;;;;17.40;8.07;;;;;;;15.23;78.44;101674.17;124843;1099;104245;-73
2022/10/27 09:08:05;;;;;;;18.33;8.37;;;;;;;15.30;78.42;101664.70;124946;1099;103648;-73
2022/10/27 09:10:45;;;;;;;16.27;7.83;;;;;;;15.34;77.61;101671.91;124949;1099;102408;-73
2022/10/27 09:13:29;;;;;;;17.37;8.17;;;;;;;15.33;77.19;101674.50;124953;1099;104223;-73
2022/10/27 09:16:04;;;;;;;19.40;7.93;;;;;;;15.35;76.60;101668.43;124964;1099;104230;-73
2022/10/27 09:18:41;;;;;;;16.23;7.40;;;;;;;15.41;76.02;101665.08;124953;1098;102782;-73
2022/10/27 09:21:19;;;;;;;16.30;7.93;;;;;;;15.45;76.16;101670.53;124825;1099;104242;-74
2022/10/27 09:24:05;;;;;;;19.97;9.40;;;;;;;15.50;77.46;101661.86;124775;1099;102332;-73
2022/10/27 09:26:36;;;;;;;18.27;9.00;;;;;;;15.58;76.47;101656.00;124807;1099;104217;-73
2022/10/27 09:29:16;;;;;;;18.65;8.60;;;;;;;15.63;75.93;101662.33;124774;1099;103334;-73
2022/10/27 09:31:51;;;;;;;19.10;8.23;;;;;;;15.70;76.92;101651.95;124815;1099;102834;-72
2022/10/27 09:34:28;;;;;;;16.53;7.73;;;;;;;15.79;76.77;101654.94;124871;1099;104223;-73
2022/10/27 09:37:01;;;;;;;18.63;8.40;;;;;;;15.84;75.05;101652.44;124806;1099;102871;-72
2022/10/27 09:39:34;;;;;;;17.70;8.40;;;;;;;15.92;75.31;101656.23;124807;1099;104200;-72
2022/10/27 09:42:08;;;;;;;16.93;7.60;;;;;;;15.98;74.62;101661.72;124924;1099;104183;-73
2022/10/27 09:44:40;;;;;;;17.80;8.37;;;;;;;15.96;75.14;101656.38;124668;1099;104198;-72
2022/10/27 09:47:11;;;;;;;16.50;7.67;;;;;;;15.99;73.85;101659.12;124660;1099;102690;-72
2022/10/27 09:49:49;;;;;;;19.13;7.87;;;;;;;16.00;74.10;101654.72;125471;1098;101910;-72
2022/10/27 09:52:28;;;;;;;14.97;6.80;;;;;;;16.11;73.19;101655.05;124708;1099;104048;-73
2022/10/27 09:54:59;;;;;;;12.07;6.63;;;;;;;16.20;73.65;101650.05;124720;1099;104176;-73
2022/10/27 09:57:36;;;;;;;12.35;6.55;;;;;;;16.31;73.00;101650.38;124699;1099;104242;-74
2022/10/27 10:00:24;;;;;;;17.77;6.67;;;;;;;16.39;73.38;101643.55;126034;1098;101949;-74
2022/10/27 10:03:03;;;;;;;13.90;6.60;;;;;;;16.45;71.57;101646.39;124395;1099;104409;-74
2022/10/27 10:05:37;;;;;;;13.30;6.23;;;;;;;16.45;71.07;101649.04;124293;1099;104382;-74
2022/10/27 10:08:15;;;;;;;;;;;;;;;16.50;68.00;101642.15;124697;1099;104236;-75
2022/10/27 10:10:59;;;;;;;13.37;6.10;;;;;;;16.60;70.69;101645.95;124734;1099;104328;-75
2022/10/27 10:13:33;;;;;;;17.07;7.50;;;;;;;16.61;71.02;101639.81;124677;1099;103838;-75
2022/10/27 10:16:17;;;;;;;14.43;5.87;;;;;;;16.70;67.54;101649.77;125968;1098;107048;-74
2022/10/27 10:18:59;;;;;;;;;;;;;;;16.69;66.22;101645.34;124790;1099;102036;-74
2022/10/27 10:21:46;;;;;;;13.60;5.53;;;;;;;16.69;69.14;101642.69;124214;1099;102270;-74
2022/10/27 10:24:24;;;;;;;13.30;5.37;;;;;;;16.68;67.63;101640.88;124680;1099;104190;-73
2022/10/27 10:26:58;;;;;;;9.97;4.80;;;;;;;16.74;66.56;101643.71;124661;1099;104214;-72
2022/10/27 10:29:34;;;;;;;10.58;5.28;;;;;;;16.76;67.78;101638.45;124603;1099;104147;-73
2022/10/27 10:32:16;;;;;;;11.90;4.95;;;;;;;16.74;67.10;101641.06;116025;1099;10001086;-74
2022/10/27 10:34:50;;;;;;;8.83;5.00;;;;;;;16.81;68.34;101635.09;124723;1098;102580;-73
2022/10/27 10:37:38;;;;;;;11.53;5.03;;;;;;;16.87;67.91;101637.91;124694;1099;104166;-72
2022/10/27 10:40:27;;;;;;;11.80;4.77;;;;;;;16.94;65.72;101644.31;124619;1099;104330;-73
2022/10/27 10:43:15;;;;;;;11.73;4.97;;;;;;;16.96;66.76;101647.00;124731;1099;104134;-73
2022/10/27 10:45:52;;;;;;;15.03;5.50;;;;;;;17.03;66.68;101636.61;124270;1099;104224;-74
2022/10/27 10:48:37;;;;;;;10.80;5.17;;;;;;;17.09;64.77;101638.51;124807;1099;104226;-73
2022/10/27 10:51:10;;;;;;;9.13;5.00;;;;;;;17.11;64.76;101639.47;116087;1098;10001238;-73
2022/10/27 10:53:49;;;;;;;9.83;5.20;;;;;;;17.17;65.78;101625.45;124927;1099;104336;-73
2022/10/27 10:56:27;;;;;;;12.83;5.50;;;;;;;17.19;63.97;101629.07;124964;1099;104162;-72
2022/10/27 10:59:06;;;;;;;11.33;5.43;;;;;;;17.18;63.69;101628.15;124799;1099;102370;-72
2022/10/27 11:01:44;;;;;;;10.97;5.23;;;;;;;17.10;63.10;101629.70;124788;1099;103023;-73
2022/10/27 11:04:22;;;;;;;11.47;5.40;;;;;;;17.06;62.88;101619.86;124668;1099;104179;-72
2022/10/27 11:07:04;;;;;;;9.63;4.87;;;;;;;17.06;63.30;101633.13;124708;1099;104271;-75
2022/10/27 11:09:43;;;;;;;13.77;5.73;;;;;;;17.01;63.44;101626.80;124633;1099;104270;-73
2022/10/27 11:15:59;;;;;;;11.97;5.50;;;;;;;16.95;62.75;101631.94;124736;1099;102597;-74
2022/10/27 11:18:42;;;;;;;13.20;5.50;;;;;;;16.97;63.20;101624.91;124783;1099;104198;-73
2022/10/27 11:21:20;;;;;;;8.90;4.87;;;;;;;16.99;62.57;101623.23;124632;1099;102681;-73
2022/10/27 11:23:54;;;;;;;11.40;4.97;;;;;;;16.95;62.33;101632.83;124710;1099;104242;-73
2022/10/27 11:26:33;;;;;;;13.33;4.90;;;;;;;16.92;62.90;101626.55;124696;1099;104750;-73
2022/10/27 11:29:14;;;;;;;11.13;5.20;;;;;;;16.88;62.60;101620.28;124759;1098;102547;-73
2022/10/27 11:31:55;;;;;;;11.90;5.40;;;;;;;16.87;60.95;101631.73;124757;1099;104268;-71
2022/10/27 11:34:37;;;;;;;11.50;5.23;;;;;;;16.85;60.91;101625.46;124718;1099;104373;-73
2022/10/27 11:37:13;;;;;;;11.60;4.90;;;;;;;16.86;61.47;101622.89;124791;1098;104172;-72
2022/10/27 11:39:56;;;;;;;13.80;5.60;;;;;;;16.81;61.02;101619.19;124331;1099;102872;-72